sensor_id;sensor_type;location;lat;lon;timestamp;P1;durP1;ratioP1;P2;durP2;ratioP2
579;SDS011;276;48.392;9.950;2023-12-28T00:02:19;7.33;;;6.73;;
579;SDS011;276;48.392;9.950;2023-12-28T00:04:47;8.33;;;7.53;;
579;SDS011;276;48.392;9.950;2023-12-28T00:07:14;9.40;;;8.50;;
579;SDS011;276;48.392;9.950;2023-12-28T00:09:40;9.03;;;8.23;;
579;SDS011;276;48.392;9.950;2023-12-28T00:12:08;7.37;;;6.67;;
579;SDS011;276;48.392;9.950;2023-12-28T00:14:33;7.97;;;7.27;;
579;SDS011;276;48.392;9.950;2023-12-28T00:16:59;9.73;;;7.60;;
579;SDS011;276;48.392;9.950;2023-12-28T00:19:25;9.53;;;6.90;;
579;SDS011;276;48.392;9.950;2023-12-28T00:21:50;6.93;;;6.30;;
579;SDS011;276;48.392;9.950;2023-12-28T00:24:20;7.33;;;6.63;;
579;SDS011;276;48.392;9.950;2023-12-28T00:26:48;7.90;;;7.10;;
579;SDS011;276;48.392;9.950;2023-12-28T00:29:18;9.00;;;8.20;;
579;SDS011;276;48.392;9.950;2023-12-28T00:31:46;9.30;;;7.20;;
579;SDS011;276;48.392;9.950;2023-12-28T00:34:14;9.13;;;7.17;;
579;SDS011;276;48.392;9.950;2023-12-28T00:36:40;7.10;;;6.50;;
579;SDS011;276;48.392;9.950;2023-12-28T00:39:07;7.07;;;6.37;;
579;SDS011;276;48.392;9.950;2023-12-28T00:41:35;7.53;;;6.93;;
579;SDS011;276;48.392;9.950;2023-12-28T00:44:06;7.23;;;6.67;;
579;SDS011;276;48.392;9.950;2023-12-28T00:46:34;7.50;;;6.80;;
579;SDS011;276;48.392;9.950;2023-12-28T00:49:03;8.07;;;7.37;;
579;SDS011;276;48.392;9.950;2023-12-28T00:51:28;7.57;;;6.87;;
579;SDS011;276;48.392;9.950;2023-12-28T00:53:54;7.33;;;6.73;;
579;SDS011;276;48.392;9.950;2023-12-28T00:56:22;6.93;;;6.17;;
579;SDS011;276;48.392;9.950;2023-12-28T00:58:48;8.63;;;7.93;;
579;SDS011;276;48.392;9.950;2023-12-28T01:01:18;7.57;;;6.87;;
579;SDS011;276;48.392;9.950;2023-12-28T01:03:48;6.70;;;5.83;;
579;SDS011;276;48.392;9.950;2023-12-28T01:06:21;6.53;;;6.03;;
579;SDS011;276;48.392;9.950;2023-12-28T01:08:47;7.17;;;6.57;;
579;SDS011;276;48.392;9.950;2023-12-28T01:11:15;6.17;;;5.67;;
579;SDS011;276;48.392;9.950;2023-12-28T01:13:40;7.77;;;6.83;;
579;SDS011;276;48.392;9.950;2023-12-28T01:16:06;7.83;;;7.07;;
579;SDS011;276;48.392;9.950;2023-12-28T01:18:31;8.17;;;7.40;;
579;SDS011;276;48.392;9.950;2023-12-28T01:21:02;7.60;;;7.00;;
579;SDS011;276;48.392;9.950;2023-12-28T01:23:28;6.70;;;6.20;;
579;SDS011;276;48.392;9.950;2023-12-28T01:25:58;7.13;;;6.53;;
579;SDS011;276;48.392;9.950;2023-12-28T01:28:24;7.00;;;6.30;;
579;SDS011;276;48.392;9.950;2023-12-28T01:30:50;6.90;;;6.40;;
579;SDS011;276;48.392;9.950;2023-12-28T01:33:15;6.83;;;6.23;;
579;SDS011;276;48.392;9.950;2023-12-28T01:35:41;7.77;;;6.20;;
579;SDS011;276;48.392;9.950;2023-12-28T01:38:07;7.77;;;7.07;;
579;SDS011;276;48.392;9.950;2023-12-28T01:40:32;7.30;;;6.70;;
579;SDS011;276;48.392;9.950;2023-12-28T01:43:00;8.43;;;7.53;;
579;SDS011;276;48.392;9.950;2023-12-28T01:45:28;9.00;;;8.20;;
579;SDS011;276;48.392;9.950;2023-12-28T01:47:55;7.47;;;6.77;;
579;SDS011;276;48.392;9.950;2023-12-28T01:50:25;7.63;;;6.90;;
579;SDS011;276;48.392;9.950;2023-12-28T01:52:52;8.80;;;8.07;;
579;SDS011;276;48.392;9.950;2023-12-28T01:55:22;9.47;;;8.67;;
579;SDS011;276;48.392;9.950;2023-12-28T01:57:52;9.07;;;8.37;;
579;SDS011;276;48.392;9.950;2023-12-28T02:00:22;10.13;;;9.13;;
579;SDS011;276;48.392;9.950;2023-12-28T02:02:48;8.30;;;7.50;;
579;SDS011;276;48.392;9.950;2023-12-28T02:05:17;9.07;;;7.27;;
579;SDS011;276;48.392;9.950;2023-12-28T02:07:46;7.43;;;6.73;;
579;SDS011;276;48.392;9.950;2023-12-28T02:10:12;8.20;;;7.20;;
579;SDS011;276;48.392;9.950;2023-12-28T02:12:42;8.20;;;7.50;;
579;SDS011;276;48.392;9.950;2023-12-28T02:15:08;9.00;;;8.20;;
579;SDS011;276;48.392;9.950;2023-12-28T02:17:38;7.73;;;7.03;;
579;SDS011;276;48.392;9.950;2023-12-28T02:20:18;8.53;;;7.83;;
579;SDS011;276;48.392;9.950;2023-12-28T02:22:45;8.97;;;8.07;;
579;SDS011;276;48.392;9.950;2023-12-28T02:25:14;9.53;;;8.53;;
579;SDS011;276;48.392;9.950;2023-12-28T02:27:42;9.10;;;8.30;;
579;SDS011;276;48.392;9.950;2023-12-28T02:30:13;9.97;;;9.07;;
579;SDS011;276;48.392;9.950;2023-12-28T02:36:04;9.63;;;8.67;;
579;SDS011;276;48.392;9.950;2023-12-28T02:38:37;8.20;;;7.57;;
579;SDS011;276;48.392;9.950;2023-12-28T02:41:07;8.90;;;8.10;;
579;SDS011;276;48.392;9.950;2023-12-28T02:43:36;9.77;;;8.70;;
579;SDS011;276;48.392;9.950;2023-12-28T02:46:02;9.27;;;8.23;;
579;SDS011;276;48.392;9.950;2023-12-28T02:48:30;8.03;;;7.33;;
579;SDS011;276;48.392;9.950;2023-12-28T02:51:00;9.43;;;8.43;;
579;SDS011;276;48.392;9.950;2023-12-28T02:53:25;8.50;;;7.70;;
579;SDS011;276;48.392;9.950;2023-12-28T02:55:53;8.70;;;7.90;;
579;SDS011;276;48.392;9.950;2023-12-28T02:58:21;9.40;;;8.50;;
579;SDS011;276;48.392;9.950;2023-12-28T03:00:47;10.27;;;7.57;;
579;SDS011;276;48.392;9.950;2023-12-28T03:03:15;9.07;;;8.17;;
579;SDS011;276;48.392;9.950;2023-12-28T03:05:40;8.87;;;7.97;;
579;SDS011;276;48.392;9.950;2023-12-28T03:08:06;8.73;;;7.50;;
579;SDS011;276;48.392;9.950;2023-12-28T03:10:34;8.20;;;7.40;;
579;SDS011;276;48.392;9.950;2023-12-28T03:12:59;7.87;;;7.13;;
579;SDS011;276;48.392;9.950;2023-12-28T03:15:26;7.33;;;6.73;;
579;SDS011;276;48.392;9.950;2023-12-28T03:17:51;7.77;;;7.03;;
579;SDS011;276;48.392;9.950;2023-12-28T03:20:19;7.30;;;6.70;;
579;SDS011;276;48.392;9.950;2023-12-28T03:22:45;8.13;;;7.43;;
579;SDS011;276;48.392;9.950;2023-12-28T03:25:11;7.67;;;6.90;;
579;SDS011;276;48.392;9.950;2023-12-28T03:27:41;9.20;;;6.60;;
579;SDS011;276;48.392;9.950;2023-12-28T03:30:07;7.00;;;6.30;;
579;SDS011;276;48.392;9.950;2023-12-28T03:32:33;7.03;;;6.37;;
579;SDS011;276;48.392;9.950;2023-12-28T03:35:00;7.37;;;6.53;;
579;SDS011;276;48.392;9.950;2023-12-28T03:37:27;6.60;;;6.00;;
579;SDS011;276;48.392;9.950;2023-12-28T03:39:55;6.10;;;5.60;;
579;SDS011;276;48.392;9.950;2023-12-28T03:42:21;8.20;;;7.50;;
579;SDS011;276;48.392;9.950;2023-12-28T03:44:47;7.33;;;6.63;;
579;SDS011;276;48.392;9.950;2023-12-28T03:47:12;7.67;;;6.83;;
579;SDS011;276;48.392;9.950;2023-12-28T03:49:40;8.13;;;7.43;;
579;SDS011;276;48.392;9.950;2023-12-28T03:52:06;7.77;;;7.07;;
579;SDS011;276;48.392;9.950;2023-12-28T03:54:36;7.20;;;6.60;;
579;SDS011;276;48.392;9.950;2023-12-28T03:57:02;7.20;;;6.60;;
579;SDS011;276;48.392;9.950;2023-12-28T03:59:32;6.70;;;6.10;;
579;SDS011;276;48.392;9.950;2023-12-28T04:01:58;10.60;;;6.57;;
579;SDS011;276;48.392;9.950;2023-12-28T04:04:26;6.97;;;6.37;;
579;SDS011;276;48.392;9.950;2023-12-28T04:06:54;7.60;;;6.60;;
579;SDS011;276;48.392;9.950;2023-12-28T04:09:22;6.87;;;6.27;;
579;SDS011;276;48.392;9.950;2023-12-28T04:11:50;6.90;;;6.30;;
579;SDS011;276;48.392;9.950;2023-12-28T04:14:16;10.23;;;6.60;;
579;SDS011;276;48.392;9.950;2023-12-28T04:16:41;7.17;;;6.53;;
579;SDS011;276;48.392;9.950;2023-12-28T04:19:07;7.50;;;6.63;;
579;SDS011;276;48.392;9.950;2023-12-28T04:21:33;9.70;;;8.10;;
579;SDS011;276;48.392;9.950;2023-12-28T04:24:01;7.17;;;6.57;;
579;SDS011;276;48.392;9.950;2023-12-28T04:26:29;8.23;;;7.40;;
579;SDS011;276;48.392;9.950;2023-12-28T04:28:58;10.63;;;6.87;;
579;SDS011;276;48.392;9.950;2023-12-28T04:31:26;6.63;;;6.13;;
579;SDS011;276;48.392;9.950;2023-12-28T04:33:52;7.20;;;6.17;;
579;SDS011;276;48.392;9.950;2023-12-28T04:36:20;8.20;;;6.90;;
579;SDS011;276;48.392;9.950;2023-12-28T04:38:48;6.70;;;6.10;;
579;SDS011;276;48.392;9.950;2023-12-28T04:41:16;7.20;;;6.60;;
579;SDS011;276;48.392;9.950;2023-12-28T04:43:41;7.03;;;6.20;;
579;SDS011;276;48.392;9.950;2023-12-28T04:46:07;6.60;;;5.97;;
579;SDS011;276;48.392;9.950;2023-12-28T04:48:33;6.73;;;6.10;;
579;SDS011;276;48.392;9.950;2023-12-28T04:51:01;7.37;;;6.77;;
579;SDS011;276;48.392;9.950;2023-12-28T04:53:29;7.87;;;6.97;;
579;SDS011;276;48.392;9.950;2023-12-28T04:55:58;6.87;;;6.20;;
579;SDS011;276;48.392;9.950;2023-12-28T04:58:24;7.10;;;6.40;;
579;SDS011;276;48.392;9.950;2023-12-28T05:00:49;6.30;;;5.80;;
579;SDS011;276;48.392;9.950;2023-12-28T05:03:18;8.10;;;7.30;;
579;SDS011;276;48.392;9.950;2023-12-28T05:05:46;6.93;;;6.17;;
579;SDS011;276;48.392;9.950;2023-12-28T05:08:11;6.57;;;5.97;;
579;SDS011;276;48.392;9.950;2023-12-28T05:10:39;7.43;;;6.83;;
579;SDS011;276;48.392;9.950;2023-12-28T05:13:05;6.53;;;6.03;;
579;SDS011;276;48.392;9.950;2023-12-28T05:15:33;7.30;;;6.60;;
579;SDS011;276;48.392;9.950;2023-12-28T05:17:59;8.30;;;6.90;;
579;SDS011;276;48.392;9.950;2023-12-28T05:20:27;6.80;;;6.20;;
579;SDS011;276;48.392;9.950;2023-12-28T05:22:57;7.30;;;5.77;;
579;SDS011;276;48.392;9.950;2023-12-28T05:25:22;7.37;;;6.73;;
579;SDS011;276;48.392;9.950;2023-12-28T05:27:48;6.53;;;5.87;;
579;SDS011;276;48.392;9.950;2023-12-28T05:30:16;8.50;;;6.57;;
579;SDS011;276;48.392;9.950;2023-12-28T05:32:41;7.57;;;6.80;;
579;SDS011;276;48.392;9.950;2023-12-28T05:35:07;8.27;;;7.47;;
579;SDS011;276;48.392;9.950;2023-12-28T05:37:35;6.80;;;6.20;;
579;SDS011;276;48.392;9.950;2023-12-28T05:40:03;7.80;;;7.20;;
579;SDS011;276;48.392;9.950;2023-12-28T05:42:31;9.27;;;6.50;;
579;SDS011;276;48.392;9.950;2023-12-28T05:44:59;6.40;;;5.80;;
579;SDS011;276;48.392;9.950;2023-12-28T05:47:24;6.83;;;6.23;;
579;SDS011;276;48.392;9.950;2023-12-28T05:49:50;7.73;;;7.03;;
579;SDS011;276;48.392;9.950;2023-12-28T05:52:16;7.10;;;6.50;;
579;SDS011;276;48.392;9.950;2023-12-28T05:54:44;7.37;;;6.70;;
579;SDS011;276;48.392;9.950;2023-12-28T05:57:15;6.90;;;6.33;;
579;SDS011;276;48.392;9.950;2023-12-28T05:59:45;7.60;;;6.97;;
579;SDS011;276;48.392;9.950;2023-12-28T06:02:11;7.30;;;6.60;;
579;SDS011;276;48.392;9.950;2023-12-28T06:04:41;6.80;;;6.20;;
579;SDS011;276;48.392;9.950;2023-12-28T06:07:08;7.80;;;6.47;;
579;SDS011;276;48.392;9.950;2023-12-28T06:09:36;6.70;;;6.20;;
579;SDS011;276;48.392;9.950;2023-12-28T06:12:06;8.40;;;5.20;;
579;SDS011;276;48.392;9.950;2023-12-28T06:14:32;6.10;;;5.60;;
579;SDS011;276;48.392;9.950;2023-12-28T06:16:58;7.73;;;7.03;;
579;SDS011;276;48.392;9.950;2023-12-28T06:19:23;6.93;;;6.00;;
579;SDS011;276;48.392;9.950;2023-12-28T06:21:51;6.30;;;5.70;;
579;SDS011;276;48.392;9.950;2023-12-28T06:24:22;6.27;;;5.73;;
579;SDS011;276;48.392;9.950;2023-12-28T06:26:48;5.93;;;5.43;;
579;SDS011;276;48.392;9.950;2023-12-28T06:29:13;6.83;;;6.23;;
579;SDS011;276;48.392;9.950;2023-12-28T06:31:39;5.83;;;5.30;;
579;SDS011;276;48.392;9.950;2023-12-28T06:34:07;6.37;;;5.73;;
579;SDS011;276;48.392;9.950;2023-12-28T06:36:32;6.23;;;5.57;;
579;SDS011;276;48.392;9.950;2023-12-28T06:39:01;8.63;;;6.40;;
579;SDS011;276;48.392;9.950;2023-12-28T06:41:28;6.97;;;6.27;;
579;SDS011;276;48.392;9.950;2023-12-28T06:43:57;6.60;;;6.00;;
579;SDS011;276;48.392;9.950;2023-12-28T06:46:22;6.70;;;6.10;;
579;SDS011;276;48.392;9.950;2023-12-28T06:48:48;6.70;;;5.97;;
579;SDS011;276;48.392;9.950;2023-12-28T06:51:19;6.83;;;5.50;;
579;SDS011;276;48.392;9.950;2023-12-28T06:53:48;6.43;;;5.90;;
579;SDS011;276;48.392;9.950;2023-12-28T06:56:16;6.93;;;6.33;;
579;SDS011;276;48.392;9.950;2023-12-28T06:58:42;6.03;;;5.50;;
579;SDS011;276;48.392;9.950;2023-12-28T07:01:08;6.90;;;5.87;;
579;SDS011;276;48.392;9.950;2023-12-28T07:03:33;5.43;;;4.90;;
579;SDS011;276;48.392;9.950;2023-12-28T07:06:01;6.40;;;5.87;;
579;SDS011;276;48.392;9.950;2023-12-28T07:08:30;6.30;;;5.13;;
579;SDS011;276;48.392;9.950;2023-12-28T07:11:00;6.20;;;5.57;;
579;SDS011;276;48.392;9.950;2023-12-28T07:13:28;5.83;;;5.17;;
579;SDS011;276;48.392;9.950;2023-12-28T07:15:59;5.80;;;5.20;;
579;SDS011;276;48.392;9.950;2023-12-28T07:18:25;6.07;;;5.47;;
579;SDS011;276;48.392;9.950;2023-12-28T07:20:55;5.70;;;5.20;;
579;SDS011;276;48.392;9.950;2023-12-28T07:23:23;7.93;;;6.13;;
579;SDS011;276;48.392;9.950;2023-12-28T07:25:49;6.53;;;6.00;;
579;SDS011;276;48.392;9.950;2023-12-28T07:28:17;5.90;;;4.90;;
579;SDS011;276;48.392;9.950;2023-12-28T07:30:45;7.40;;;6.40;;
579;SDS011;276;48.392;9.950;2023-12-28T07:33:15;6.77;;;6.10;;
579;SDS011;276;48.392;9.950;2023-12-28T07:35:43;5.90;;;5.30;;
579;SDS011;276;48.392;9.950;2023-12-28T07:38:11;6.40;;;5.73;;
579;SDS011;276;48.392;9.950;2023-12-28T07:40:37;7.90;;;6.20;;
579;SDS011;276;48.392;9.950;2023-12-28T07:43:03;6.13;;;5.63;;
579;SDS011;276;48.392;9.950;2023-12-28T07:45:29;6.23;;;5.30;;
579;SDS011;276;48.392;9.950;2023-12-28T07:47:55;6.00;;;5.50;;
579;SDS011;276;48.392;9.950;2023-12-28T07:50:21;6.80;;;6.20;;
579;SDS011;276;48.392;9.950;2023-12-28T07:52:47;8.33;;;5.80;;
579;SDS011;276;48.392;9.950;2023-12-28T07:55:13;7.60;;;6.40;;
579;SDS011;276;48.392;9.950;2023-12-28T07:57:39;6.37;;;5.87;;
579;SDS011;276;48.392;9.950;2023-12-28T08:00:06;6.60;;;6.00;;
579;SDS011;276;48.392;9.950;2023-12-28T08:02:32;6.13;;;5.53;;
579;SDS011;276;48.392;9.950;2023-12-28T08:04:58;7.60;;;6.47;;
579;SDS011;276;48.392;9.950;2023-12-28T08:07:27;6.53;;;6.03;;
579;SDS011;276;48.392;9.950;2023-12-28T08:09:54;6.23;;;5.63;;
579;SDS011;276;48.392;9.950;2023-12-28T08:12:22;5.90;;;5.33;;
579;SDS011;276;48.392;9.950;2023-12-28T08:14:49;5.77;;;5.27;;
579;SDS011;276;48.392;9.950;2023-12-28T08:17:15;11.50;;;7.57;;
579;SDS011;276;48.392;9.950;2023-12-28T08:19:43;5.30;;;4.90;;
579;SDS011;276;48.392;9.950;2023-12-28T08:22:08;6.63;;;6.13;;
579;SDS011;276;48.392;9.950;2023-12-28T08:24:36;6.83;;;6.13;;
579;SDS011;276;48.392;9.950;2023-12-28T08:27:02;5.37;;;4.97;;
579;SDS011;276;48.392;9.950;2023-12-28T08:29:31;6.90;;;6.03;;
579;SDS011;276;48.392;9.950;2023-12-28T08:31:56;6.60;;;5.73;;
579;SDS011;276;48.392;9.950;2023-12-28T08:34:27;6.87;;;6.30;;
579;SDS011;276;48.392;9.950;2023-12-28T08:36:55;6.80;;;6.17;;
579;SDS011;276;48.392;9.950;2023-12-28T08:39:21;6.03;;;5.17;;
579;SDS011;276;48.392;9.950;2023-12-28T08:41:46;6.60;;;6.00;;
579;SDS011;276;48.392;9.950;2023-12-28T08:44:14;8.43;;;5.50;;
579;SDS011;276;48.392;9.950;2023-12-28T08:46:42;6.60;;;5.97;;
579;SDS011;276;48.392;9.950;2023-12-28T08:49:10;5.80;;;5.30;;
579;SDS011;276;48.392;9.950;2023-12-28T08:51:40;5.20;;;4.80;;
579;SDS011;276;48.392;9.950;2023-12-28T08:54:09;6.00;;;5.50;;
579;SDS011;276;48.392;9.950;2023-12-28T08:56:34;5.47;;;5.03;;
579;SDS011;276;48.392;9.950;2023-12-28T08:59:00;6.63;;;5.97;;
579;SDS011;276;48.392;9.950;2023-12-28T09:01:28;6.57;;;5.90;;
579;SDS011;276;48.392;9.950;2023-12-28T09:03:59;7.53;;;6.80;;
579;SDS011;276;48.392;9.950;2023-12-28T09:06:26;6.30;;;5.57;;
579;SDS011;276;48.392;9.950;2023-12-28T09:08:56;6.83;;;6.23;;
579;SDS011;276;48.392;9.950;2023-12-28T09:11:22;6.73;;;6.10;;
579;SDS011;276;48.392;9.950;2023-12-28T09:13:52;6.73;;;6.13;;
579;SDS011;276;48.392;9.950;2023-12-28T09:16:22;6.00;;;5.37;;
579;SDS011;276;48.392;9.950;2023-12-28T09:18:48;5.60;;;5.10;;
579;SDS011;276;48.392;9.950;2023-12-28T09:21:19;6.07;;;5.47;;
579;SDS011;276;48.392;9.950;2023-12-28T09:23:47;6.43;;;5.80;;
579;SDS011;276;48.392;9.950;2023-12-28T09:26:18;6.33;;;5.80;;
579;SDS011;276;48.392;9.950;2023-12-28T09:28:44;11.70;;;6.83;;
579;SDS011;276;48.392;9.950;2023-12-28T09:31:10;6.87;;;6.17;;
579;SDS011;276;48.392;9.950;2023-12-28T09:33:36;6.73;;;6.03;;
579;SDS011;276;48.392;9.950;2023-12-28T09:36:07;5.93;;;5.47;;
579;SDS011;276;48.392;9.950;2023-12-28T09:38:34;5.93;;;5.43;;
579;SDS011;276;48.392;9.950;2023-12-28T09:41:06;6.40;;;5.37;;
579;SDS011;276;48.392;9.950;2023-12-28T09:43:56;4.97;;;4.57;;
579;SDS011;276;48.392;9.950;2023-12-28T09:46:30;6.93;;;6.33;;
579;SDS011;276;48.392;9.950;2023-12-28T09:48:57;5.50;;;5.03;;
579;SDS011;276;48.392;9.950;2023-12-28T09:51:23;7.50;;;6.13;;
579;SDS011;276;48.392;9.950;2023-12-28T09:53:50;6.47;;;5.87;;
579;SDS011;276;48.392;9.950;2023-12-28T09:56:16;6.73;;;5.60;;
579;SDS011;276;48.392;9.950;2023-12-28T09:58:42;7.17;;;5.87;;
579;SDS011;276;48.392;9.950;2023-12-28T10:01:11;6.93;;;6.10;;
579;SDS011;276;48.392;9.950;2023-12-28T10:03:42;5.63;;;5.13;;
579;SDS011;276;48.392;9.950;2023-12-28T10:06:10;5.40;;;4.90;;
579;SDS011;276;48.392;9.950;2023-12-28T10:08:35;6.10;;;5.60;;
579;SDS011;276;48.392;9.950;2023-12-28T10:11:12;7.43;;;6.03;;
579;SDS011;276;48.392;9.950;2023-12-28T10:13:45;6.27;;;5.77;;
579;SDS011;276;48.392;9.950;2023-12-28T10:16:14;7.40;;;6.00;;
579;SDS011;276;48.392;9.950;2023-12-28T10:18:43;6.80;;;6.03;;
579;SDS011;276;48.392;9.950;2023-12-28T10:21:12;6.53;;;5.97;;
579;SDS011;276;48.392;9.950;2023-12-28T10:23:42;6.07;;;5.47;;
579;SDS011;276;48.392;9.950;2023-12-28T10:26:10;6.10;;;5.60;;
579;SDS011;276;48.392;9.950;2023-12-28T10:28:36;7.23;;;6.20;;
579;SDS011;276;48.392;9.950;2023-12-28T10:31:04;6.80;;;6.20;;
579;SDS011;276;48.392;9.950;2023-12-28T10:33:38;5.83;;;5.33;;
579;SDS011;276;48.392;9.950;2023-12-28T10:36:07;6.43;;;5.80;;
579;SDS011;276;48.392;9.950;2023-12-28T10:38:39;5.70;;;5.20;;
579;SDS011;276;48.392;9.950;2023-12-28T10:41:10;6.00;;;5.40;;
579;SDS011;276;48.392;9.950;2023-12-28T10:46:38;6.60;;;5.90;;
579;SDS011;276;48.392;9.950;2023-12-28T10:49:15;5.00;;;4.50;;
579;SDS011;276;48.392;9.950;2023-12-28T10:51:44;5.97;;;5.37;;
579;SDS011;276;48.392;9.950;2023-12-28T11:00:11;6.27;;;5.67;;
579;SDS011;276;48.392;9.950;2023-12-28T11:02:48;6.90;;;6.30;;
579;SDS011;276;48.392;9.950;2023-12-28T11:05:19;6.20;;;5.60;;
579;SDS011;276;48.392;9.950;2023-12-28T11:07:47;5.57;;;5.10;;
579;SDS011;276;48.392;9.950;2023-12-28T11:10:14;6.10;;;5.50;;
579;SDS011;276;48.392;9.950;2023-12-28T11:12:42;6.83;;;5.30;;
579;SDS011;276;48.392;9.950;2023-12-28T11:15:08;6.33;;;5.73;;
579;SDS011;276;48.392;9.950;2023-12-28T11:17:37;5.07;;;4.67;;
579;SDS011;276;48.392;9.950;2023-12-28T11:20:03;5.70;;;5.20;;
579;SDS011;276;48.392;9.950;2023-12-28T11:22:30;8.77;;;6.70;;
579;SDS011;276;48.392;9.950;2023-12-28T11:24:57;7.00;;;5.97;;
579;SDS011;276;48.392;9.950;2023-12-28T11:27:23;6.20;;;4.90;;
579;SDS011;276;48.392;9.950;2023-12-28T11:29:51;6.50;;;6.00;;
579;SDS011;276;48.392;9.950;2023-12-28T11:32:19;6.57;;;5.83;;
579;SDS011;276;48.392;9.950;2023-12-28T11:34:58;6.53;;;5.80;;
579;SDS011;276;48.392;9.950;2023-12-28T11:37:24;7.63;;;5.53;;
579;SDS011;276;48.392;9.950;2023-12-28T11:39:51;5.50;;;5.10;;
579;SDS011;276;48.392;9.950;2023-12-28T11:42:22;5.20;;;4.80;;
579;SDS011;276;48.392;9.950;2023-12-28T11:44:48;5.30;;;4.90;;
579;SDS011;276;48.392;9.950;2023-12-28T11:47:22;6.53;;;5.93;;
579;SDS011;276;48.392;9.950;2023-12-28T11:49:53;7.10;;;6.37;;
579;SDS011;276;48.392;9.950;2023-12-28T11:52:26;6.10;;;5.60;;
579;SDS011;276;48.392;9.950;2023-12-28T11:54:57;6.43;;;5.83;;
579;SDS011;276;48.392;9.950;2023-12-28T11:57:24;6.23;;;5.73;;
579;SDS011;276;48.392;9.950;2023-12-28T11:59:56;6.43;;;5.83;;
579;SDS011;276;48.392;9.950;2023-12-28T12:02:22;6.60;;;6.00;;
579;SDS011;276;48.392;9.950;2023-12-28T12:04:49;6.20;;;5.60;;
579;SDS011;276;48.392;9.950;2023-12-28T12:07:17;5.87;;;5.37;;
579;SDS011;276;48.392;9.950;2023-12-28T12:09:43;5.80;;;5.30;;
579;SDS011;276;48.392;9.950;2023-12-28T12:12:11;6.23;;;5.73;;
579;SDS011;276;48.392;9.950;2023-12-28T12:14:39;6.20;;;5.60;;
579;SDS011;276;48.392;9.950;2023-12-28T12:17:05;6.53;;;5.40;;
579;SDS011;276;48.392;9.950;2023-12-28T12:19:31;7.23;;;5.93;;
579;SDS011;276;48.392;9.950;2023-12-28T12:21:57;8.23;;;5.43;;
579;SDS011;276;48.392;9.950;2023-12-28T12:24:25;6.30;;;5.67;;
579;SDS011;276;48.392;9.950;2023-12-28T12:26:53;6.47;;;5.97;;
579;SDS011;276;48.392;9.950;2023-12-28T12:29:19;6.80;;;5.60;;
579;SDS011;276;48.392;9.950;2023-12-28T12:31:47;6.93;;;5.30;;
579;SDS011;276;48.392;9.950;2023-12-28T12:34:19;7.83;;;5.83;;
579;SDS011;276;48.392;9.950;2023-12-28T12:36:48;6.43;;;5.73;;
579;SDS011;276;48.392;9.950;2023-12-28T12:39:17;8.10;;;6.63;;
579;SDS011;276;48.392;9.950;2023-12-28T12:41:45;6.70;;;6.20;;
579;SDS011;276;48.392;9.950;2023-12-28T12:44:11;6.30;;;5.70;;
579;SDS011;276;48.392;9.950;2023-12-28T12:46:41;7.63;;;5.90;;
579;SDS011;276;48.392;9.950;2023-12-28T12:49:10;6.20;;;5.60;;
579;SDS011;276;48.392;9.950;2023-12-28T12:51:35;8.33;;;5.70;;
579;SDS011;276;48.392;9.950;2023-12-28T12:54:05;7.80;;;7.10;;
579;SDS011;276;48.392;9.950;2023-12-28T12:56:34;7.00;;;6.30;;
579;SDS011;276;48.392;9.950;2023-12-28T12:59:00;8.40;;;6.40;;
579;SDS011;276;48.392;9.950;2023-12-28T13:01:28;8.33;;;5.70;;
579;SDS011;276;48.392;9.950;2023-12-28T13:03:53;7.13;;;6.40;;
579;SDS011;276;48.392;9.950;2023-12-28T13:06:22;7.37;;;6.67;;
579;SDS011;276;48.392;9.950;2023-12-28T13:08:50;7.03;;;5.70;;
579;SDS011;276;48.392;9.950;2023-12-28T13:11:15;6.50;;;5.90;;
579;SDS011;276;48.392;9.950;2023-12-28T13:13:41;6.07;;;5.47;;
579;SDS011;276;48.392;9.950;2023-12-28T13:16:06;5.77;;;5.17;;
579;SDS011;276;48.392;9.950;2023-12-28T13:18:34;6.00;;;5.40;;
579;SDS011;276;48.392;9.950;2023-12-28T13:21:05;6.07;;;5.57;;
579;SDS011;276;48.392;9.950;2023-12-28T13:23:30;6.30;;;5.77;;
579;SDS011;276;48.392;9.950;2023-12-28T13:25:58;5.90;;;5.37;;
579;SDS011;276;48.392;9.950;2023-12-28T13:28:29;6.50;;;6.00;;
579;SDS011;276;48.392;9.950;2023-12-28T13:30:59;5.90;;;5.30;;
579;SDS011;276;48.392;9.950;2023-12-28T13:33:25;5.47;;;4.97;;
579;SDS011;276;48.392;9.950;2023-12-28T13:35:51;6.10;;;5.20;;
579;SDS011;276;48.392;9.950;2023-12-28T13:38:18;4.90;;;4.50;;
579;SDS011;276;48.392;9.950;2023-12-28T13:40:44;5.97;;;5.20;;
579;SDS011;276;48.392;9.950;2023-12-28T13:43:14;5.80;;;5.30;;
579;SDS011;276;48.392;9.950;2023-12-28T13:45:40;6.33;;;5.73;;
579;SDS011;276;48.392;9.950;2023-12-28T13:48:06;5.77;;;5.27;;
579;SDS011;276;48.392;9.950;2023-12-28T13:50:32;6.30;;;5.80;;
579;SDS011;276;48.392;9.950;2023-12-28T13:52:58;6.03;;;5.27;;
579;SDS011;276;48.392;9.950;2023-12-28T13:55:23;6.40;;;5.80;;
579;SDS011;276;48.392;9.950;2023-12-28T13:57:49;6.20;;;5.60;;
579;SDS011;276;48.392;9.950;2023-12-28T14:00:17;6.17;;;5.43;;
579;SDS011;276;48.392;9.950;2023-12-28T14:02:43;8.17;;;5.77;;
579;SDS011;276;48.392;9.950;2023-12-28T14:05:09;6.17;;;5.67;;
579;SDS011;276;48.392;9.950;2023-12-28T14:07:37;6.50;;;5.90;;
579;SDS011;276;48.392;9.950;2023-12-28T14:10:05;6.87;;;6.17;;
579;SDS011;276;48.392;9.950;2023-12-28T14:12:33;6.17;;;5.63;;
579;SDS011;276;48.392;9.950;2023-12-28T14:15:03;6.37;;;5.77;;
579;SDS011;276;48.392;9.950;2023-12-28T14:17:32;6.93;;;5.33;;
579;SDS011;276;48.392;9.950;2023-12-28T14:20:03;6.73;;;6.17;;
579;SDS011;276;48.392;9.950;2023-12-28T14:22:29;7.00;;;5.77;;
579;SDS011;276;48.392;9.950;2023-12-28T14:24:54;6.40;;;5.57;;
579;SDS011;276;48.392;9.950;2023-12-28T14:27:20;6.63;;;5.97;;
579;SDS011;276;48.392;9.950;2023-12-28T14:29:51;7.07;;;6.37;;
579;SDS011;276;48.392;9.950;2023-12-28T14:32:19;6.83;;;6.27;;
579;SDS011;276;48.392;9.950;2023-12-28T14:34:46;8.60;;;6.90;;
579;SDS011;276;48.392;9.950;2023-12-28T14:37:14;6.43;;;5.93;;
579;SDS011;276;48.392;9.950;2023-12-28T14:39:44;7.50;;;6.53;;
579;SDS011;276;48.392;9.950;2023-12-28T14:42:12;6.50;;;5.87;;
579;SDS011;276;48.392;9.950;2023-12-28T14:44:38;7.37;;;5.63;;
579;SDS011;276;48.392;9.950;2023-12-28T14:47:07;6.10;;;5.60;;
579;SDS011;276;48.392;9.950;2023-12-28T14:49:32;6.50;;;5.90;;
579;SDS011;276;48.392;9.950;2023-12-28T14:51:58;6.67;;;6.07;;
579;SDS011;276;48.392;9.950;2023-12-28T14:54:26;7.00;;;6.50;;
579;SDS011;276;48.392;9.950;2023-12-28T14:56:54;7.13;;;5.83;;
579;SDS011;276;48.392;9.950;2023-12-28T14:59:20;6.90;;;6.20;;
579;SDS011;276;48.392;9.950;2023-12-28T15:01:50;8.00;;;6.90;;
579;SDS011;276;48.392;9.950;2023-12-28T15:04:16;6.87;;;6.07;;
579;SDS011;276;48.392;9.950;2023-12-28T15:06:44;8.00;;;6.10;;
579;SDS011;276;48.392;9.950;2023-12-28T15:09:10;7.57;;;6.97;;
579;SDS011;276;48.392;9.950;2023-12-28T15:11:35;7.33;;;6.73;;
579;SDS011;276;48.392;9.950;2023-12-28T15:14:02;8.70;;;7.00;;
579;SDS011;276;48.392;9.950;2023-12-28T15:16:28;7.63;;;6.93;;
579;SDS011;276;48.392;9.950;2023-12-28T15:18:56;7.00;;;6.30;;
579;SDS011;276;48.392;9.950;2023-12-28T15:21:24;7.73;;;6.93;;
579;SDS011;276;48.392;9.950;2023-12-28T15:23:52;8.60;;;7.17;;
579;SDS011;276;48.392;9.950;2023-12-28T15:26:18;7.87;;;7.20;;
579;SDS011;276;48.392;9.950;2023-12-28T15:28:46;7.60;;;6.77;;
579;SDS011;276;48.392;9.950;2023-12-28T15:31:14;6.80;;;6.10;;
579;SDS011;276;48.392;9.950;2023-12-28T15:33:43;7.90;;;7.10;;
579;SDS011;276;48.392;9.950;2023-12-28T15:36:09;7.93;;;6.43;;
579;SDS011;276;48.392;9.950;2023-12-28T15:38:35;11.27;;;10.17;;
579;SDS011;276;48.392;9.950;2023-12-28T15:41:03;9.57;;;7.07;;
579;SDS011;276;48.392;9.950;2023-12-28T15:43:31;8.67;;;7.30;;
579;SDS011;276;48.392;9.950;2023-12-28T15:45:57;7.70;;;7.10;;
579;SDS011;276;48.392;9.950;2023-12-28T15:48:25;6.70;;;6.20;;
579;SDS011;276;48.392;9.950;2023-12-28T15:50:53;6.40;;;5.90;;
579;SDS011;276;48.392;9.950;2023-12-28T15:53:23;7.47;;;6.50;;
579;SDS011;276;48.392;9.950;2023-12-28T15:55:49;6.60;;;5.90;;
579;SDS011;276;48.392;9.950;2023-12-28T15:58:19;6.67;;;6.10;;
579;SDS011;276;48.392;9.950;2023-12-28T16:00:47;8.47;;;6.30;;